Flight Track Log - Related Links

Times and Time Zones

All times are in EDT time to prevent confusion due to time zone crossing. See the SKW4664 flight status page for this flight to view local times or setup timezone preferences in your user account.

Time Position Orientation Groundspeed Altitude Reporting Facility
EDT Latitude Longitude Course Direction KTS MPH feet Rate Location/Type
Tue 12:03:21 PM 43.6553 -96.6808 46° Northeast 199 229 5,000  Level Minneapolis Center
Tue 12:04:23 PM 43.7017 -96.5947 53° Northeast 250 288 7,300 2,032 Climbing Minneapolis Center
Tue 12:05:00 PM 43.8639 -96.2135 53° Northeast  Level FlightAware Approximate
Tue 12:05:25 PM 43.7533 -96.5003 53° Northeast 281 323 9,200  Level Minneapolis Center
Tue 12:06:00 PM 43.9369 -96.0804 52° Northeast  Level FlightAware Approximate
Tue 12:06:26 PM 43.8119 -96.3886 54° Northeast 326 375 11,100  Level Minneapolis Center
Tue 12:07:00 PM 44.0106 -95.9480 52° Northeast  Level FlightAware Approximate
Tue 12:07:28 PM 43.8731 -96.2731 54° Northeast 357 411 13,300  Level Minneapolis Center
Tue 12:08:30 PM 43.9353 -96.1558 54° Northeast 377 434 15,200 1,805 Climbing Minneapolis Center
Tue 12:09:31 PM 44.0128 -96.0072 54° Northeast 402 463 17,000 1,561 Climbing Minneapolis Center
Tue 12:10:33 PM 44.0672 -95.9067 53° Northeast 411 473 18,400 1,548 Climbing Minneapolis Center
Tue 12:11:35 PM 44.1478 -95.7511 54° Northeast 418 481 20,200 1,610 Climbing Minneapolis Center
Tue 12:12:36 PM 44.2169 -95.6189 54° Northeast 424 488 21,700 1,366 Climbing Minneapolis Center
Tue 12:13:38 PM 44.2869 -95.4842 54° Northeast 429 494 23,000 629 Climbing Minneapolis Center
Tue 12:14:40 PM 44.3747 -95.3111 55° Northeast 455 524 23,000  Level Minneapolis Center
Tue 12:15:42 PM 44.4497 -95.1633 55° Northeast 466 536 23,000  Level Minneapolis Center
Tue 12:16:43 PM 44.4992 -94.9953 68° East 468 539 23,000 -878 Level Minneapolis Center
Tue 12:17:45 PM 44.5408 -94.8261 71° East 462 532 21,200 -1,902 Descending Minneapolis Center
Tue 12:18:46 PM 44.5717 -94.6908 72° East 459 528 19,100 -2,683 Descending Minneapolis Center
Tue 12:19:48 PM 44.6183 -94.4881 72° East 434 499 15,700 -2,488 Descending Minneapolis Center
Tue 12:20:49 PM 44.6456 -94.3681 72° East 409 471 14,000 -2,049 Descending Minneapolis Center
Tue 12:21:51 PM 44.6842 -94.1972 72° East 382 440 11,500 -1,452 Descending Minneapolis Center
Tue 12:22:53 PM 44.7153 -94.0553 73° East 380 437 11,000 -242 Descending Minneapolis Center
Tue 12:23:55 PM 44.7472 -93.9128 72° East 381 438 11,000  Level Minneapolis Center
Tue 12:24:56 PM 44.7867 -93.7353 73° East 393 452 11,000 -244 Level Minneapolis Center
Tue 12:25:58 PM 44.8175 -93.5961 73° East 378 435 10,500 -1,113 Descending Minneapolis Center
Tue 12:27:00 PM 44.8456 -93.4681 73° East 345 397 8,700 -1,111 Descending Minneapolis Center
Tue 12:28:13 PM 44.8636 -93.3464 78° East 319 367 8,000 -667 Descending Minneapolis Center
Tue 12:29:15 PM 44.7864 -93.2911 153° Southeast 269 310 7,200 -1,113 Descending Minneapolis Center
Tue 12:30:17 PM 44.7058 -93.2719 170° South 256 295 5,700 -1,500 Descending Minneapolis Center
Tue 12:31:19 PM 44.6644 -93.2100 133° Southeast 271 312 4,100 -774 Descending Minneapolis Center
Tue 12:32:21 PM 44.7111 -93.1864 20° North 211 243 4,100  Level Minneapolis Center

Login

Don't have an account? Register now (free) for customized features, flight alerts, and more!